sensor_id;sensor_type;location;lat;lon;timestamp;P1;durP1;ratioP1;P2;durP2;ratioP2
6665;SDS011;3369;49.906;8.598;2022-12-11T00:00:22;25.27;;;16.90;;
6665;SDS011;3369;49.906;8.598;2022-12-11T00:02:47;25.97;;;16.40;;
6665;SDS011;3369;49.906;8.598;2022-12-11T00:05:13;24.30;;;16.97;;
6665;SDS011;3369;49.906;8.598;2022-12-11T00:07:39;24.60;;;16.57;;
6665;SDS011;3369;49.906;8.598;2022-12-11T00:10:05;27.10;;;17.40;;
6665;SDS011;3369;49.906;8.598;2022-12-11T00:12:31;29.17;;;17.63;;
6665;SDS011;3369;49.906;8.598;2022-12-11T00:14:56;29.47;;;17.60;;
6665;SDS011;3369;49.906;8.598;2022-12-11T00:17:22;24.93;;;16.57;;
6665;SDS011;3369;49.906;8.598;2022-12-11T00:19:48;28.43;;;16.27;;
6665;SDS011;3369;49.906;8.598;2022-12-11T00:22:13;27.50;;;17.13;;
6665;SDS011;3369;49.906;8.598;2022-12-11T00:24:39;23.77;;;15.63;;
6665;SDS011;3369;49.906;8.598;2022-12-11T00:27:05;27.03;;;16.53;;
6665;SDS011;3369;49.906;8.598;2022-12-11T00:29:30;21.80;;;14.77;;
6665;SDS011;3369;49.906;8.598;2022-12-11T00:31:56;24.87;;;15.67;;
6665;SDS011;3369;49.906;8.598;2022-12-11T00:34:21;26.97;;;17.53;;
6665;SDS011;3369;49.906;8.598;2022-12-11T00:36:47;26.00;;;16.30;;
6665;SDS011;3369;49.906;8.598;2022-12-11T00:39:13;25.90;;;17.00;;
6665;SDS011;3369;49.906;8.598;2022-12-11T00:41:38;28.03;;;17.93;;
6665;SDS011;3369;49.906;8.598;2022-12-11T00:44:04;25.50;;;17.00;;
6665;SDS011;3369;49.906;8.598;2022-12-11T00:46:30;26.17;;;16.83;;
6665;SDS011;3369;49.906;8.598;2022-12-11T00:48:55;25.80;;;16.03;;
6665;SDS011;3369;49.906;8.598;2022-12-11T00:51:21;23.50;;;16.07;;
6665;SDS011;3369;49.906;8.598;2022-12-11T00:53:46;22.17;;;15.13;;
6665;SDS011;3369;49.906;8.598;2022-12-11T00:56:17;25.03;;;16.43;;
6665;SDS011;3369;49.906;8.598;2022-12-11T00:58:45;30.03;;;17.80;;
6665;SDS011;3369;49.906;8.598;2022-12-11T01:01:13;29.07;;;17.23;;
6665;SDS011;3369;49.906;8.598;2022-12-11T01:03:40;28.50;;;18.00;;
6665;SDS011;3369;49.906;8.598;2022-12-11T01:06:06;27.73;;;17.63;;
6665;SDS011;3369;49.906;8.598;2022-12-11T01:08:32;29.00;;;18.17;;
6665;SDS011;3369;49.906;8.598;2022-12-11T01:11:02;27.97;;;18.03;;
6665;SDS011;3369;49.906;8.598;2022-12-11T01:13:29;25.70;;;17.27;;
6665;SDS011;3369;49.906;8.598;2022-12-11T01:15:55;25.40;;;17.13;;
6665;SDS011;3369;49.906;8.598;2022-12-11T01:18:21;26.97;;;18.03;;
6665;SDS011;3369;49.906;8.598;2022-12-11T01:20:46;30.73;;;19.33;;
6665;SDS011;3369;49.906;8.598;2022-12-11T01:23:12;27.53;;;18.00;;
6665;SDS011;3369;49.906;8.598;2022-12-11T01:25:37;25.50;;;17.67;;
6665;SDS011;3369;49.906;8.598;2022-12-11T01:28:04;31.90;;;18.43;;
6665;SDS011;3369;49.906;8.598;2022-12-11T01:30:30;29.73;;;17.87;;
6665;SDS011;3369;49.906;8.598;2022-12-11T01:32:56;24.77;;;16.27;;
6665;SDS011;3369;49.906;8.598;2022-12-11T01:35:21;26.67;;;17.20;;
6665;SDS011;3369;49.906;8.598;2022-12-11T01:37:47;27.20;;;16.90;;
6665;SDS011;3369;49.906;8.598;2022-12-11T01:40:14;29.67;;;18.23;;
6665;SDS011;3369;49.906;8.598;2022-12-11T01:42:42;30.47;;;18.27;;
6665;SDS011;3369;49.906;8.598;2022-12-11T01:47:42;30.70;;;17.90;;
6665;SDS011;3369;49.906;8.598;2022-12-11T01:50:08;25.33;;;16.47;;
6665;SDS011;3369;49.906;8.598;2022-12-11T01:52:35;24.90;;;16.63;;
6665;SDS011;3369;49.906;8.598;2022-12-11T01:55:00;26.00;;;17.77;;
6665;SDS011;3369;49.906;8.598;2022-12-11T01:57:26;29.73;;;18.27;;
6665;SDS011;3369;49.906;8.598;2022-12-11T01:59:52;29.87;;;18.00;;
6665;SDS011;3369;49.906;8.598;2022-12-11T02:02:19;25.93;;;17.50;;
6665;SDS011;3369;49.906;8.598;2022-12-11T02:04:48;24.43;;;17.00;;
6665;SDS011;3369;49.906;8.598;2022-12-11T02:07:14;27.50;;;17.67;;
6665;SDS011;3369;49.906;8.598;2022-12-11T02:09:40;29.10;;;18.03;;
6665;SDS011;3369;49.906;8.598;2022-12-11T02:17:16;26.00;;;18.20;;
6665;SDS011;3369;49.906;8.598;2022-12-11T02:39:25;31.20;;;18.37;;
6665;SDS011;3369;49.906;8.598;2022-12-11T02:41:52;28.73;;;18.30;;
6665;SDS011;3369;49.906;8.598;2022-12-11T02:44:20;27.17;;;17.77;;
6665;SDS011;3369;49.906;8.598;2022-12-11T02:46:49;30.57;;;17.63;;
6665;SDS011;3369;49.906;8.598;2022-12-11T02:49:16;29.20;;;18.30;;
6665;SDS011;3369;49.906;8.598;2022-12-11T02:51:42;29.60;;;18.30;;
6665;SDS011;3369;49.906;8.598;2022-12-11T02:54:13;26.10;;;17.33;;
6665;SDS011;3369;49.906;8.598;2022-12-11T02:59:35;25.80;;;16.83;;
6665;SDS011;3369;49.906;8.598;2022-12-11T03:02:03;27.17;;;16.50;;
6665;SDS011;3369;49.906;8.598;2022-12-11T03:04:29;26.40;;;17.20;;
6665;SDS011;3369;49.906;8.598;2022-12-11T03:06:55;27.93;;;17.03;;
6665;SDS011;3369;49.906;8.598;2022-12-11T03:09:26;25.80;;;18.17;;
6665;SDS011;3369;49.906;8.598;2022-12-11T03:11:52;28.43;;;18.17;;
6665;SDS011;3369;49.906;8.598;2022-12-11T03:14:18;36.20;;;19.47;;
6665;SDS011;3369;49.906;8.598;2022-12-11T03:17:03;30.80;;;19.50;;
6665;SDS011;3369;49.906;8.598;2022-12-11T03:19:39;30.93;;;18.80;;
6665;SDS011;3369;49.906;8.598;2022-12-11T03:22:44;28.87;;;18.77;;
6665;SDS011;3369;49.906;8.598;2022-12-11T03:25:10;31.30;;;18.90;;
6665;SDS011;3369;49.906;8.598;2022-12-11T03:27:45;28.07;;;19.27;;
6665;SDS011;3369;49.906;8.598;2022-12-11T03:30:26;27.33;;;17.70;;
6665;SDS011;3369;49.906;8.598;2022-12-11T03:32:54;27.57;;;17.77;;
6665;SDS011;3369;49.906;8.598;2022-12-11T03:38:08;29.60;;;19.30;;
6665;SDS011;3369;49.906;8.598;2022-12-11T03:40:37;30.63;;;17.43;;
6665;SDS011;3369;49.906;8.598;2022-12-11T03:43:06;31.30;;;18.80;;
6665;SDS011;3369;49.906;8.598;2022-12-11T03:45:32;30.20;;;18.63;;
6665;SDS011;3369;49.906;8.598;2022-12-11T03:47:59;28.37;;;18.57;;
6665;SDS011;3369;49.906;8.598;2022-12-11T03:50:27;29.40;;;19.00;;
6665;SDS011;3369;49.906;8.598;2022-12-11T03:52:55;30.67;;;18.20;;
6665;SDS011;3369;49.906;8.598;2022-12-11T03:55:21;27.83;;;17.87;;
6665;SDS011;3369;49.906;8.598;2022-12-11T03:57:47;27.73;;;19.70;;
6665;SDS011;3369;49.906;8.598;2022-12-11T04:00:15;28.23;;;18.83;;
6665;SDS011;3369;49.906;8.598;2022-12-11T04:02:43;33.77;;;20.20;;
6665;SDS011;3369;49.906;8.598;2022-12-11T04:05:09;32.10;;;19.43;;
6665;SDS011;3369;49.906;8.598;2022-12-11T04:07:36;29.90;;;19.70;;
6665;SDS011;3369;49.906;8.598;2022-12-11T04:10:02;28.80;;;19.10;;
6665;SDS011;3369;49.906;8.598;2022-12-11T04:12:28;28.93;;;18.50;;
6665;SDS011;3369;49.906;8.598;2022-12-11T04:14:54;31.20;;;19.33;;
6665;SDS011;3369;49.906;8.598;2022-12-11T04:17:32;33.00;;;19.83;;
6665;SDS011;3369;49.906;8.598;2022-12-11T04:20:19;29.60;;;18.77;;
6665;SDS011;3369;49.906;8.598;2022-12-11T04:23:04;28.37;;;18.17;;
6665;SDS011;3369;49.906;8.598;2022-12-11T04:25:49;27.80;;;17.80;;
6665;SDS011;3369;49.906;8.598;2022-12-11T04:28:15;27.10;;;18.93;;
6665;SDS011;3369;49.906;8.598;2022-12-11T04:30:46;27.03;;;18.97;;
6665;SDS011;3369;49.906;8.598;2022-12-11T04:33:13;32.10;;;20.00;;
6665;SDS011;3369;49.906;8.598;2022-12-11T04:35:39;28.33;;;18.77;;
6665;SDS011;3369;49.906;8.598;2022-12-11T04:38:04;30.23;;;19.73;;
6665;SDS011;3369;49.906;8.598;2022-12-11T04:40:30;33.33;;;20.17;;
6665;SDS011;3369;49.906;8.598;2022-12-11T04:42:55;33.33;;;21.50;;
6665;SDS011;3369;49.906;8.598;2022-12-11T04:45:21;32.20;;;21.20;;
6665;SDS011;3369;49.906;8.598;2022-12-11T04:47:47;31.73;;;19.30;;
6665;SDS011;3369;49.906;8.598;2022-12-11T04:50:13;29.97;;;19.10;;
6665;SDS011;3369;49.906;8.598;2022-12-11T04:52:39;32.40;;;19.47;;
6665;SDS011;3369;49.906;8.598;2022-12-11T04:55:06;33.27;;;20.53;;
6665;SDS011;3369;49.906;8.598;2022-12-11T04:57:32;32.27;;;19.60;;
6665;SDS011;3369;49.906;8.598;2022-12-11T04:59:58;33.17;;;21.93;;
6665;SDS011;3369;49.906;8.598;2022-12-11T05:02:24;32.83;;;20.63;;
6665;SDS011;3369;49.906;8.598;2022-12-11T05:04:50;38.30;;;22.57;;
6665;SDS011;3369;49.906;8.598;2022-12-11T05:07:16;34.47;;;21.07;;
6665;SDS011;3369;49.906;8.598;2022-12-11T05:09:41;33.10;;;21.07;;
6665;SDS011;3369;49.906;8.598;2022-12-11T05:12:07;35.63;;;22.63;;
6665;SDS011;3369;49.906;8.598;2022-12-11T05:14:33;36.00;;;22.93;;
6665;SDS011;3369;49.906;8.598;2022-12-11T05:16:59;34.27;;;22.03;;
6665;SDS011;3369;49.906;8.598;2022-12-11T05:19:24;37.73;;;22.73;;
6665;SDS011;3369;49.906;8.598;2022-12-11T05:21:50;33.80;;;21.93;;
6665;SDS011;3369;49.906;8.598;2022-12-11T05:24:16;34.30;;;22.13;;
6665;SDS011;3369;49.906;8.598;2022-12-11T05:26:42;35.70;;;22.40;;
6665;SDS011;3369;49.906;8.598;2022-12-11T05:29:07;33.27;;;22.03;;
6665;SDS011;3369;49.906;8.598;2022-12-11T05:31:33;39.70;;;22.27;;
6665;SDS011;3369;49.906;8.598;2022-12-11T05:33:59;32.40;;;20.80;;
6665;SDS011;3369;49.906;8.598;2022-12-11T05:36:29;35.53;;;22.53;;
6665;SDS011;3369;49.906;8.598;2022-12-11T05:38:57;35.00;;;22.53;;
6665;SDS011;3369;49.906;8.598;2022-12-11T05:41:24;33.20;;;21.10;;
6665;SDS011;3369;49.906;8.598;2022-12-11T05:43:51;36.90;;;24.30;;
6665;SDS011;3369;49.906;8.598;2022-12-11T05:46:21;37.60;;;24.77;;
6665;SDS011;3369;49.906;8.598;2022-12-11T05:48:50;37.27;;;25.43;;
6665;SDS011;3369;49.906;8.598;2022-12-11T05:51:17;40.63;;;23.63;;
6665;SDS011;3369;49.906;8.598;2022-12-11T05:53:44;38.13;;;24.73;;
6665;SDS011;3369;49.906;8.598;2022-12-11T05:56:13;39.97;;;24.83;;
6665;SDS011;3369;49.906;8.598;2022-12-11T05:58:41;40.30;;;24.80;;
6665;SDS011;3369;49.906;8.598;2022-12-11T06:01:12;36.23;;;23.47;;
6665;SDS011;3369;49.906;8.598;2022-12-11T06:03:49;37.67;;;23.90;;
6665;SDS011;3369;49.906;8.598;2022-12-11T06:06:15;36.63;;;23.53;;
6665;SDS011;3369;49.906;8.598;2022-12-11T06:08:40;38.83;;;24.00;;
6665;SDS011;3369;49.906;8.598;2022-12-11T06:11:06;33.20;;;21.67;;
6665;SDS011;3369;49.906;8.598;2022-12-11T06:13:32;35.07;;;22.07;;
6665;SDS011;3369;49.906;8.598;2022-12-11T06:16:02;38.40;;;24.57;;
6665;SDS011;3369;49.906;8.598;2022-12-11T06:18:30;37.83;;;23.07;;
6665;SDS011;3369;49.906;8.598;2022-12-11T06:20:56;34.20;;;22.37;;
6665;SDS011;3369;49.906;8.598;2022-12-11T06:23:22;38.17;;;23.07;;
6665;SDS011;3369;49.906;8.598;2022-12-11T06:25:47;33.03;;;21.67;;
6665;SDS011;3369;49.906;8.598;2022-12-11T06:28:13;34.33;;;22.43;;
6665;SDS011;3369;49.906;8.598;2022-12-11T06:30:39;36.57;;;24.47;;
6665;SDS011;3369;49.906;8.598;2022-12-11T06:33:05;38.00;;;24.50;;
6665;SDS011;3369;49.906;8.598;2022-12-11T06:35:31;39.70;;;25.00;;
6665;SDS011;3369;49.906;8.598;2022-12-11T06:37:57;40.77;;;24.80;;
6665;SDS011;3369;49.906;8.598;2022-12-11T06:40:23;40.90;;;24.43;;
6665;SDS011;3369;49.906;8.598;2022-12-11T06:42:49;32.47;;;22.37;;
6665;SDS011;3369;49.906;8.598;2022-12-11T06:45:14;38.23;;;24.77;;
6665;SDS011;3369;49.906;8.598;2022-12-11T06:47:40;37.30;;;23.90;;
6665;SDS011;3369;49.906;8.598;2022-12-11T06:50:05;40.53;;;23.87;;
6665;SDS011;3369;49.906;8.598;2022-12-11T06:52:31;33.53;;;21.90;;
6665;SDS011;3369;49.906;8.598;2022-12-11T06:54:57;34.97;;;22.87;;
6665;SDS011;3369;49.906;8.598;2022-12-11T06:57:22;34.87;;;22.70;;
6665;SDS011;3369;49.906;8.598;2022-12-11T06:59:48;32.93;;;22.33;;
6665;SDS011;3369;49.906;8.598;2022-12-11T07:02:15;39.63;;;22.43;;
6665;SDS011;3369;49.906;8.598;2022-12-11T07:04:42;36.70;;;22.73;;
6665;SDS011;3369;49.906;8.598;2022-12-11T07:07:08;36.40;;;23.03;;
6665;SDS011;3369;49.906;8.598;2022-12-11T07:09:36;35.47;;;23.20;;
6665;SDS011;3369;49.906;8.598;2022-12-11T07:12:03;34.33;;;22.37;;
6665;SDS011;3369;49.906;8.598;2022-12-11T07:14:30;38.33;;;23.37;;
6665;SDS011;3369;49.906;8.598;2022-12-11T07:16:56;36.93;;;23.03;;
6665;SDS011;3369;49.906;8.598;2022-12-11T07:19:22;35.77;;;22.83;;
6665;SDS011;3369;49.906;8.598;2022-12-11T07:21:48;36.00;;;23.93;;
6665;SDS011;3369;49.906;8.598;2022-12-11T07:24:14;36.43;;;23.87;;
6665;SDS011;3369;49.906;8.598;2022-12-11T07:26:39;37.70;;;23.70;;
6665;SDS011;3369;49.906;8.598;2022-12-11T07:29:05;35.70;;;22.67;;
6665;SDS011;3369;49.906;8.598;2022-12-11T07:31:31;39.87;;;24.93;;
6665;SDS011;3369;49.906;8.598;2022-12-11T07:33:57;36.23;;;22.67;;
6665;SDS011;3369;49.906;8.598;2022-12-11T07:36:24;36.80;;;22.70;;
6665;SDS011;3369;49.906;8.598;2022-12-11T07:38:51;34.50;;;22.17;;
6665;SDS011;3369;49.906;8.598;2022-12-11T07:41:17;35.80;;;23.60;;
6665;SDS011;3369;49.906;8.598;2022-12-11T07:43:43;34.43;;;22.43;;
6665;SDS011;3369;49.906;8.598;2022-12-11T07:46:11;35.67;;;23.50;;
6665;SDS011;3369;49.906;8.598;2022-12-11T07:48:38;35.23;;;22.60;;
6665;SDS011;3369;49.906;8.598;2022-12-11T07:53:50;45.30;;;25.13;;
6665;SDS011;3369;49.906;8.598;2022-12-11T07:56:17;38.23;;;23.80;;
6665;SDS011;3369;49.906;8.598;2022-12-11T07:58:43;37.13;;;25.00;;
6665;SDS011;3369;49.906;8.598;2022-12-11T08:01:12;43.37;;;26.77;;
6665;SDS011;3369;49.906;8.598;2022-12-11T08:03:42;42.88;;;34.17;;
6665;SDS011;3369;49.906;8.598;2022-12-11T08:06:08;39.07;;;26.57;;
6665;SDS011;3369;49.906;8.598;2022-12-11T08:08:34;41.40;;;25.17;;
6665;SDS011;3369;49.906;8.598;2022-12-11T08:11:00;34.47;;;24.03;;
6665;SDS011;3369;49.906;8.598;2022-12-11T08:13:27;35.63;;;23.43;;
6665;SDS011;3369;49.906;8.598;2022-12-11T08:15:52;37.97;;;25.00;;
6665;SDS011;3369;49.906;8.598;2022-12-11T08:18:18;39.07;;;24.50;;
6665;SDS011;3369;49.906;8.598;2022-12-11T08:20:44;35.77;;;23.67;;
6665;SDS011;3369;49.906;8.598;2022-12-11T08:23:10;34.60;;;22.50;;
6665;SDS011;3369;49.906;8.598;2022-12-11T08:25:35;36.60;;;22.87;;
6665;SDS011;3369;49.906;8.598;2022-12-11T08:28:01;34.87;;;23.07;;
6665;SDS011;3369;49.906;8.598;2022-12-11T08:30:26;43.43;;;28.93;;
6665;SDS011;3369;49.906;8.598;2022-12-11T08:32:53;39.23;;;25.10;;
6665;SDS011;3369;49.906;8.598;2022-12-11T08:35:18;39.80;;;25.67;;
6665;SDS011;3369;49.906;8.598;2022-12-11T08:37:44;39.67;;;23.57;;
6665;SDS011;3369;49.906;8.598;2022-12-11T08:40:10;40.00;;;25.97;;
6665;SDS011;3369;49.906;8.598;2022-12-11T08:42:36;41.50;;;26.83;;
6665;SDS011;3369;49.906;8.598;2022-12-11T08:45:02;40.13;;;25.57;;
6665;SDS011;3369;49.906;8.598;2022-12-11T08:47:28;39.93;;;24.57;;
6665;SDS011;3369;49.906;8.598;2022-12-11T08:49:54;45.40;;;28.33;;
6665;SDS011;3369;49.906;8.598;2022-12-11T08:52:20;41.47;;;26.33;;
6665;SDS011;3369;49.906;8.598;2022-12-11T08:54:46;49.80;;;27.60;;
6665;SDS011;3369;49.906;8.598;2022-12-11T08:57:12;40.93;;;25.67;;
6665;SDS011;3369;49.906;8.598;2022-12-11T08:59:38;49.13;;;26.57;;
6665;SDS011;3369;49.906;8.598;2022-12-11T09:02:03;47.07;;;27.23;;
6665;SDS011;3369;49.906;8.598;2022-12-11T09:04:29;42.40;;;26.43;;
6665;SDS011;3369;49.906;8.598;2022-12-11T09:06:55;50.77;;;26.00;;
6665;SDS011;3369;49.906;8.598;2022-12-11T09:09:20;46.90;;;28.13;;
6665;SDS011;3369;49.906;8.598;2022-12-11T09:11:46;47.17;;;27.60;;
6665;SDS011;3369;49.906;8.598;2022-12-11T09:14:11;44.33;;;26.57;;
6665;SDS011;3369;49.906;8.598;2022-12-11T09:16:38;49.90;;;28.37;;
6665;SDS011;3369;49.906;8.598;2022-12-11T09:19:05;46.80;;;27.13;;
6665;SDS011;3369;49.906;8.598;2022-12-11T09:21:31;47.90;;;27.40;;
6665;SDS011;3369;49.906;8.598;2022-12-11T09:23:57;47.67;;;27.73;;
6665;SDS011;3369;49.906;8.598;2022-12-11T09:26:25;47.23;;;26.03;;
6665;SDS011;3369;49.906;8.598;2022-12-11T09:28:52;44.73;;;26.20;;
6665;SDS011;3369;49.906;8.598;2022-12-11T09:31:20;48.80;;;27.80;;
6665;SDS011;3369;49.906;8.598;2022-12-11T09:33:58;46.30;;;27.40;;
6665;SDS011;3369;49.906;8.598;2022-12-11T09:36:25;48.60;;;27.27;;
6665;SDS011;3369;49.906;8.598;2022-12-11T09:38:52;50.40;;;29.77;;
6665;SDS011;3369;49.906;8.598;2022-12-11T09:46:40;46.93;;;27.60;;
6665;SDS011;3369;49.906;8.598;2022-12-11T09:49:10;50.07;;;27.77;;
6665;SDS011;3369;49.906;8.598;2022-12-11T09:54:53;55.57;;;30.13;;
6665;SDS011;3369;49.906;8.598;2022-12-11T09:57:28;55.07;;;28.63;;
6665;SDS011;3369;49.906;8.598;2022-12-11T10:00:23;49.47;;;28.03;;
6665;SDS011;3369;49.906;8.598;2022-12-11T10:05:37;47.80;;;26.90;;
6665;SDS011;3369;49.906;8.598;2022-12-11T10:13:52;44.07;;;25.40;;
6665;SDS011;3369;49.906;8.598;2022-12-11T10:19:03;49.77;;;27.40;;
6665;SDS011;3369;49.906;8.598;2022-12-11T10:21:32;52.20;;;27.47;;
6665;SDS011;3369;49.906;8.598;2022-12-11T10:24:04;48.63;;;26.20;;
6665;SDS011;3369;49.906;8.598;2022-12-11T10:26:36;50.47;;;27.27;;
6665;SDS011;3369;49.906;8.598;2022-12-11T10:29:05;45.20;;;26.43;;
6665;SDS011;3369;49.906;8.598;2022-12-11T10:31:48;49.03;;;26.80;;
6665;SDS011;3369;49.906;8.598;2022-12-11T10:37:04;45.53;;;25.70;;
6665;SDS011;3369;49.906;8.598;2022-12-11T10:39:30;43.83;;;25.40;;
6665;SDS011;3369;49.906;8.598;2022-12-11T10:41:56;49.73;;;26.50;;
6665;SDS011;3369;49.906;8.598;2022-12-11T10:44:23;47.63;;;27.03;;
6665;SDS011;3369;49.906;8.598;2022-12-11T10:49:32;44.60;;;25.30;;
6665;SDS011;3369;49.906;8.598;2022-12-11T10:51:59;42.83;;;25.53;;
6665;SDS011;3369;49.906;8.598;2022-12-11T10:54:31;41.63;;;23.67;;
6665;SDS011;3369;49.906;8.598;2022-12-11T10:57:02;40.37;;;22.33;;
6665;SDS011;3369;49.906;8.598;2022-12-11T10:59:35;39.93;;;23.87;;
6665;SDS011;3369;49.906;8.598;2022-12-11T11:02:51;39.33;;;23.17;;
6665;SDS011;3369;49.906;8.598;2022-12-11T11:05:10;41.37;;;24.53;;
6665;SDS011;3369;49.906;8.598;2022-12-11T11:07:38;44.67;;;25.33;;
6665;SDS011;3369;49.906;8.598;2022-12-11T11:12:54;40.37;;;24.27;;
6665;SDS011;3369;49.906;8.598;2022-12-11T11:15:27;42.57;;;23.87;;
6665;SDS011;3369;49.906;8.598;2022-12-11T11:17:54;45.23;;;25.10;;
6665;SDS011;3369;49.906;8.598;2022-12-11T11:20:29;42.77;;;24.83;;
6665;SDS011;3369;49.906;8.598;2022-12-11T11:22:56;40.03;;;22.40;;
6665;SDS011;3369;49.906;8.598;2022-12-11T11:25:26;40.47;;;23.80;;
6665;SDS011;3369;49.906;8.598;2022-12-11T11:27:57;41.50;;;21.57;;
6665;SDS011;3369;49.906;8.598;2022-12-11T11:30:25;40.13;;;23.17;;
6665;SDS011;3369;49.906;8.598;2022-12-11T11:32:55;45.37;;;26.00;;
6665;SDS011;3369;49.906;8.598;2022-12-11T11:35:25;45.23;;;25.80;;
6665;SDS011;3369;49.906;8.598;2022-12-11T11:38:10;41.20;;;23.97;;
6665;SDS011;3369;49.906;8.598;2022-12-11T11:40:47;41.53;;;23.23;;
6665;SDS011;3369;49.906;8.598;2022-12-11T11:43:27;36.97;;;23.27;;
6665;SDS011;3369;49.906;8.598;2022-12-11T11:45:58;43.43;;;25.20;;
6665;SDS011;3369;49.906;8.598;2022-12-11T11:51:15;47.00;;;25.27;;
6665;SDS011;3369;49.906;8.598;2022-12-11T11:54:06;42.27;;;26.10;;
6665;SDS011;3369;49.906;8.598;2022-12-11T11:56:42;43.97;;;24.73;;
6665;SDS011;3369;49.906;8.598;2022-12-11T11:59:20;40.03;;;24.30;;
6665;SDS011;3369;49.906;8.598;2022-12-11T12:01:53;38.50;;;23.03;;
6665;SDS011;3369;49.906;8.598;2022-12-11T12:04:20;38.50;;;22.77;;
6665;SDS011;3369;49.906;8.598;2022-12-11T12:06:56;43.80;;;25.57;;
6665;SDS011;3369;49.906;8.598;2022-12-11T12:12:47;38.90;;;23.23;;
6665;SDS011;3369;49.906;8.598;2022-12-11T12:15:23;38.47;;;22.73;;
6665;SDS011;3369;49.906;8.598;2022-12-11T12:21:08;37.33;;;22.17;;
6665;SDS011;3369;49.906;8.598;2022-12-11T12:31:58;36.70;;;22.47;;
6665;SDS011;3369;49.906;8.598;2022-12-11T12:42:49;41.03;;;23.93;;
6665;SDS011;3369;49.906;8.598;2022-12-11T12:46:10;38.87;;;23.53;;
6665;SDS011;3369;49.906;8.598;2022-12-11T12:48:25;37.17;;;22.90;;
6665;SDS011;3369;49.906;8.598;2022-12-11T12:50:52;39.53;;;23.17;;
6665;SDS011;3369;49.906;8.598;2022-12-11T12:53:19;41.00;;;23.20;;
6665;SDS011;3369;49.906;8.598;2022-12-11T12:55:49;40.40;;;23.47;;
6665;SDS011;3369;49.906;8.598;2022-12-11T13:01:07;40.77;;;24.87;;
6665;SDS011;3369;49.906;8.598;2022-12-11T13:03:36;38.17;;;23.73;;
6665;SDS011;3369;49.906;8.598;2022-12-11T13:06:15;40.10;;;23.57;;
6665;SDS011;3369;49.906;8.598;2022-12-11T13:08:51;40.37;;;22.60;;
6665;SDS011;3369;49.906;8.598;2022-12-11T13:11:19;41.77;;;23.80;;
6665;SDS011;3369;49.906;8.598;2022-12-11T13:13:46;36.50;;;22.67;;
6665;SDS011;3369;49.906;8.598;2022-12-11T13:16:37;33.43;;;20.60;;
6665;SDS011;3369;49.906;8.598;2022-12-11T13:24:48;40.63;;;22.50;;
6665;SDS011;3369;49.906;8.598;2022-12-11T13:27:24;40.03;;;23.60;;
6665;SDS011;3369;49.906;8.598;2022-12-11T13:30:07;35.13;;;21.30;;
6665;SDS011;3369;49.906;8.598;2022-12-11T13:35:46;41.87;;;25.30;;
6665;SDS011;3369;49.906;8.598;2022-12-11T13:38:17;44.50;;;26.17;;
6665;SDS011;3369;49.906;8.598;2022-12-11T13:40:45;43.60;;;24.10;;
6665;SDS011;3369;49.906;8.598;2022-12-11T13:43:19;40.97;;;24.40;;
6665;SDS011;3369;49.906;8.598;2022-12-11T13:45:50;42.20;;;24.73;;
6665;SDS011;3369;49.906;8.598;2022-12-11T13:48:31;39.20;;;23.43;;
6665;SDS011;3369;49.906;8.598;2022-12-11T13:50:58;41.47;;;22.90;;
6665;SDS011;3369;49.906;8.598;2022-12-11T13:53:25;43.13;;;25.33;;
6665;SDS011;3369;49.906;8.598;2022-12-11T13:55:55;43.50;;;24.57;;
6665;SDS011;3369;49.906;8.598;2022-12-11T13:58:29;40.73;;;24.40;;
6665;SDS011;3369;49.906;8.598;2022-12-11T14:01:06;38.13;;;22.67;;
6665;SDS011;3369;49.906;8.598;2022-12-11T14:03:37;41.10;;;22.87;;
6665;SDS011;3369;49.906;8.598;2022-12-11T14:06:04;40.43;;;24.33;;
6665;SDS011;3369;49.906;8.598;2022-12-11T14:08:34;44.30;;;23.67;;
6665;SDS011;3369;49.906;8.598;2022-12-11T14:11:02;42.90;;;24.80;;
6665;SDS011;3369;49.906;8.598;2022-12-11T14:13:36;43.20;;;24.53;;
6665;SDS011;3369;49.906;8.598;2022-12-11T14:16:04;44.23;;;23.87;;
6665;SDS011;3369;49.906;8.598;2022-12-11T14:18:30;40.63;;;23.87;;
6665;SDS011;3369;49.906;8.598;2022-12-11T14:21:00;44.10;;;24.90;;
6665;SDS011;3369;49.906;8.598;2022-12-11T14:23:28;41.67;;;24.73;;
6665;SDS011;3369;49.906;8.598;2022-12-11T14:28:26;39.47;;;22.90;;
6665;SDS011;3369;49.906;8.598;2022-12-11T14:30:55;48.30;;;25.37;;
6665;SDS011;3369;49.906;8.598;2022-12-11T14:33:24;34.17;;;21.60;;
6665;SDS011;3369;49.906;8.598;2022-12-11T14:55:35;47.93;;;24.80;;
6665;SDS011;3369;49.906;8.598;2022-12-11T14:58:10;52.97;;;26.60;;
6665;SDS011;3369;49.906;8.598;2022-12-11T15:00:38;46.47;;;24.67;;
6665;SDS011;3369;49.906;8.598;2022-12-11T15:03:04;46.10;;;26.80;;
6665;SDS011;3369;49.906;8.598;2022-12-11T15:05:54;42.40;;;25.30;;
6665;SDS011;3369;49.906;8.598;2022-12-11T15:08:28;41.30;;;23.63;;
6665;SDS011;3369;49.906;8.598;2022-12-11T15:11:05;46.53;;;25.93;;
6665;SDS011;3369;49.906;8.598;2022-12-11T15:13:36;43.13;;;25.23;;
6665;SDS011;3369;49.906;8.598;2022-12-11T15:16:13;45.10;;;25.70;;
6665;SDS011;3369;49.906;8.598;2022-12-11T15:18:40;39.53;;;23.37;;
6665;SDS011;3369;49.906;8.598;2022-12-11T15:21:07;42.30;;;24.23;;
6665;SDS011;3369;49.906;8.598;2022-12-11T15:23:51;38.73;;;22.87;;
6665;SDS011;3369;49.906;8.598;2022-12-11T15:26:19;40.63;;;24.40;;
6665;SDS011;3369;49.906;8.598;2022-12-11T15:29:00;45.50;;;25.23;;
6665;SDS011;3369;49.906;8.598;2022-12-11T15:31:29;40.40;;;24.43;;
6665;SDS011;3369;49.906;8.598;2022-12-11T15:33:57;40.30;;;24.00;;
6665;SDS011;3369;49.906;8.598;2022-12-11T15:38:56;39.93;;;24.77;;
6665;SDS011;3369;49.906;8.598;2022-12-11T15:41:22;43.20;;;25.13;;
6665;SDS011;3369;49.906;8.598;2022-12-11T15:43:49;43.93;;;24.97;;
6665;SDS011;3369;49.906;8.598;2022-12-11T15:46:20;44.53;;;24.63;;
6665;SDS011;3369;49.906;8.598;2022-12-11T15:48:46;42.90;;;23.80;;
6665;SDS011;3369;49.906;8.598;2022-12-11T15:51:13;37.37;;;23.83;;
6665;SDS011;3369;49.906;8.598;2022-12-11T15:53:39;37.47;;;23.87;;
6665;SDS011;3369;49.906;8.598;2022-12-11T15:56:05;45.27;;;25.80;;
6665;SDS011;3369;49.906;8.598;2022-12-11T15:58:31;48.13;;;26.07;;
6665;SDS011;3369;49.906;8.598;2022-12-11T16:00:57;45.63;;;26.90;;
6665;SDS011;3369;49.906;8.598;2022-12-11T16:03:23;49.80;;;29.20;;
6665;SDS011;3369;49.906;8.598;2022-12-11T16:05:49;48.23;;;27.20;;
6665;SDS011;3369;49.906;8.598;2022-12-11T16:08:18;47.70;;;27.83;;
6665;SDS011;3369;49.906;8.598;2022-12-11T16:10:45;40.70;;;25.90;;
6665;SDS011;3369;49.906;8.598;2022-12-11T16:13:12;44.33;;;25.57;;
6665;SDS011;3369;49.906;8.598;2022-12-11T16:15:39;38.40;;;24.43;;
6665;SDS011;3369;49.906;8.598;2022-12-11T16:18:08;46.93;;;24.87;;
6665;SDS011;3369;49.906;8.598;2022-12-11T16:20:39;51.50;;;29.30;;
6665;SDS011;3369;49.906;8.598;2022-12-11T16:23:06;51.00;;;27.30;;
6665;SDS011;3369;49.906;8.598;2022-12-11T16:25:33;45.40;;;24.77;;
6665;SDS011;3369;49.906;8.598;2022-12-11T16:28:01;41.90;;;24.87;;
6665;SDS011;3369;49.906;8.598;2022-12-11T16:30:27;37.93;;;23.33;;
6665;SDS011;3369;49.906;8.598;2022-12-11T16:32:53;43.30;;;23.40;;
6665;SDS011;3369;49.906;8.598;2022-12-11T16:35:20;47.07;;;26.03;;
6665;SDS011;3369;49.906;8.598;2022-12-11T16:37:52;47.13;;;26.13;;
6665;SDS011;3369;49.906;8.598;2022-12-11T16:40:18;51.97;;;29.60;;
6665;SDS011;3369;49.906;8.598;2022-12-11T16:42:44;52.47;;;28.27;;
6665;SDS011;3369;49.906;8.598;2022-12-11T16:45:13;49.40;;;27.70;;
6665;SDS011;3369;49.906;8.598;2022-12-11T16:47:41;51.57;;;28.97;;
6665;SDS011;3369;49.906;8.598;2022-12-11T16:50:07;44.30;;;25.47;;
6665;SDS011;3369;49.906;8.598;2022-12-11T16:52:34;42.57;;;24.60;;
6665;SDS011;3369;49.906;8.598;2022-12-11T16:54:59;38.63;;;22.73;;
6665;SDS011;3369;49.906;8.598;2022-12-11T16:57:25;38.13;;;21.77;;
6665;SDS011;3369;49.906;8.598;2022-12-11T16:59:52;39.07;;;21.30;;
6665;SDS011;3369;49.906;8.598;2022-12-11T17:02:17;36.93;;;22.50;;